Time;durP1;ratioP1;P1;durP2;ratioP2;P2;SDS_P1;SDS_P2;PMS_P1;PMS_P2;Temp;Humidity;BMP_temperature;BMP_pressure;BME280_temperature;BME280_humidity;BME280_pressure;Samples;Min_cycle;Max_cycle;Signal;HPM_P1;HPM_P2
2024/02/16 00:00:04;;;;;;;;;;;;;;;2.61;100.00;95334.19;10437927;28;19917;-79
2024/02/16 00:05:07;;;;;;;;;;;;;;;2.40;100.00;95332.63;10491898;28;20454;-78
2024/02/16 00:10:19;;;;;;;;;;;;;;;2.43;100.00;95332.19;10479521;28;20007;-82
2024/02/16 00:15:20;;;;;;;;;;;;;;;2.17;100.00;95336.50;10463469;28;19920;-81
2024/02/16 00:20:22;;;;;;;;;;;;;;;2.17;100.00;95339.16;10482441;28;19912;-81
2024/02/16 00:25:24;;;;;;;;;;;;;;;2.29;100.00;95339.38;10460409;28;19924;-83
2024/02/16 00:30:42;;;;;;;;;;;;;;;2.34;100.00;95341.38;10475184;28;19912;-79
2024/02/16 00:35:42;;;;;;;;;;;;;;;2.31;100.00;95345.25;10456425;28;19920;-80
2024/02/16 00:40:44;;;;;;;;;;;;;;;2.26;100.00;95347.75;10459407;28;19936;-82
2024/02/16 00:45:45;;;;;;;;;;;;;;;2.08;100.00;95345.72;10480930;28;19920;-79
2024/02/16 00:50:45;;;;;;;;;;;;;;;2.05;100.00;95344.28;10477841;28;20122;-78
2024/02/16 00:55:46;;;;;;;;;;;;;;;2.03;100.00;95338.34;10477575;28;20276;-83
2024/02/16 01:00:47;;;;;;;;;;;;;;;2.05;100.00;95356.69;10470333;28;19987;-81
2024/02/16 01:05:47;;;;;;;;;;;;;;;2.01;100.00;95353.66;10462330;28;19916;-83
2024/02/16 01:10:48;;;;;;;;;;;;;;;2.03;100.00;95351.59;10479592;28;20355;-82
2024/02/16 01:15:48;;;;;;;;;;;;;;;2.03;100.00;95348.16;10460858;28;19920;-80
2024/02/16 01:20:48;;;;;;;;;;;;;;;2.01;100.00;95342.22;10442861;28;19977;-80
2024/02/16 01:25:48;;;;;;;;;;;;;;;2.03;100.00;95346.31;10479910;28;19924;-85
2024/02/16 01:30:49;;;;;;;;;;;;;;;1.86;100.00;95337.94;10458422;28;19916;-79
2024/02/16 01:35:49;;;;;;;;;;;;;;;1.83;100.00;95340.19;10441170;28;19920;-80
2024/02/16 01:40:50;;;;;;;;;;;;;;;1.78;100.00;95332.03;10457952;28;19920;-80
2024/02/16 01:45:50;;;;;;;;;;;;;;;1.80;100.00;95322.88;10458198;28;19916;-80
2024/02/16 01:50:51;;;;;;;;;;;;;;;1.56;100.00;95324.25;10473072;28;20361;-79
2024/02/16 01:55:51;;;;;;;;;;;;;;;1.54;100.00;95327.13;10475442;28;19955;-85
2024/02/16 02:00:52;;;;;;;;;;;;;;;1.38;100.00;95324.84;10479856;28;19913;-81
2024/02/16 02:05:54;;;;;;;;;;;;;;;1.36;100.00;95326.88;10481223;28;19927;-84
2024/02/16 02:10:55;;;;;;;;;;;;;;;1.42;100.00;95314.66;10475269;28;20002;-84
2024/02/16 02:15:58;;;;;;;;;;;;;;;1.28;100.00;95316.47;10484623;28;19916;-78
2024/02/16 02:20:59;;;;;;;;;;;;;;;1.26;100.00;95323.81;10495897;28;19924;-84
2024/02/16 02:25:59;;;;;;;;;;;;;;;1.16;100.00;95318.91;10486095;28;20588;-79
2024/02/16 02:31:00;;;;;;;;;;;;;;;1.16;100.00;95318.91;10480476;28;19955;-78
2024/02/16 02:36:00;;;;;;;;;;;;;;;1.20;100.00;95338.66;10482623;28;20309;-78
2024/02/16 02:41:00;;;;;;;;;;;;;;;1.24;100.00;95325.84;10501172;28;20404;-78
2024/02/16 02:46:01;;;;;;;;;;;;;;;1.14;100.00;95329.66;10478408;28;19951;-84
2024/02/16 02:51:03;;;;;;;;;;;;;;;1.11;100.00;95322.13;10473481;28;20367;-80
2024/02/16 02:56:04;;;;;;;;;;;;;;;1.17;100.00;95326.66;10489238;28;20013;-78
2024/02/16 03:01:05;;;;;;;;;;;;;;;1.22;100.00;95322.59;10465613;28;20438;-82
2024/02/16 03:06:06;;;;;;;;;;;;;;;1.19;100.00;95329.91;10462449;28;19934;-84
2024/02/16 03:11:06;;;;;;;;;;;;;;;1.16;100.00;95319.72;10460691;28;19920;-84
2024/02/16 03:16:06;;;;;;;;;;;;;;;1.13;100.00;95336.00;10477398;28;20016;-78
2024/02/16 03:21:07;;;;;;;;;;;;;;;1.18;100.00;95333.53;10466757;28;20789;-79
2024/02/16 03:26:14;;;;;;;;;;;;;;;1.09;100.00;95324.19;10466222;28;20314;-79
2024/02/16 03:31:20;;;;;;;;;;;;;;;0.83;100.00;95332.84;10469376;28;19923;-83
2024/02/16 03:36:20;;;;;;;;;;;;;;;0.85;100.00;95334.28;10480614;28;20352;-79
2024/02/16 03:41:21;;;;;;;;;;;;;;;0.80;100.00;95334.03;10466045;28;19913;-79
2024/02/16 03:46:22;;;;;;;;;;;;;;;0.81;100.00;95329.53;10465065;28;19928;-79
2024/02/16 03:51:25;;;;;;;;;;;;;;;0.87;100.00;95327.97;10469530;28;19935;-82
2024/02/16 03:56:25;;;;;;;;;;;;;;;0.97;100.00;95331.06;10463571;28;20385;-78
2024/02/16 04:01:25;;;;;;;;;;;;;;;0.91;100.00;95326.53;10462989;28;19964;-80
2024/02/16 04:06:26;;;;;;;;;;;;;;;0.92;100.00;95329.00;10474035;28;19961;-79
2024/02/16 04:11:29;;;;;;;;;;;;;;;0.95;100.00;95331.25;10475748;28;19966;-80
2024/02/16 04:16:29;;;;;;;;;;;;;;;1.06;100.00;95329.03;10463085;28;19924;-79
2024/02/16 04:21:29;;;;;;;;;;;;;;;1.10;100.00;95330.28;10457668;28;19928;-82
2024/02/16 04:26:31;;;;;;;;;;;;;;;1.12;100.00;95328.25;10448520;28;19916;-78
2024/02/16 04:31:31;;;;;;;;;;;;;;;1.16;100.00;95330.31;10464866;28;19973;-84
2024/02/16 04:36:32;;;;;;;;;;;;;;;1.11;100.00;95332.72;10462796;28;19917;-78
2024/02/16 04:41:32;;;;;;;;;;;;;;;1.07;100.00;95335.97;10462118;28;19912;-79
2024/02/16 04:46:32;;;;;;;;;;;;;;;1.06;100.00;95336.97;10450374;28;20353;-84
2024/02/16 04:51:40;;;;;;;;;;;;;;;1.07;100.00;95333.31;10453324;28;20362;-79
2024/02/16 04:56:40;;;;;;;;;;;;;;;1.00;100.00;95342.03;10486617;28;20387;-77
2024/02/16 05:01:40;;;;;;;;;;;;;;;0.97;100.00;95341.63;10463055;28;19920;-82
2024/02/16 05:06:41;;;;;;;;;;;;;;;0.97;100.00;95337.16;10479254;28;20015;-78
2024/02/16 05:11:41;;;;;;;;;;;;;;;0.96;100.00;95350.59;10460174;28;20461;-79
2024/02/16 05:16:46;;;;;;;;;;;;;;;0.90;100.00;95354.03;10461329;28;19960;-79
2024/02/16 05:21:46;;;;;;;;;;;;;;;0.88;100.00;95366.63;10461783;28;19912;-82
2024/02/16 05:26:46;;;;;;;;;;;;;;;0.91;100.00;95367.06;10459407;28;19920;-79
2024/02/16 05:31:46;;;;;;;;;;;;;;;0.95;100.00;95370.13;10478209;28;19912;-78
2024/02/16 05:36:47;;;;;;;;;;;;;;;0.85;100.00;95370.47;10478468;28;19964;-79
2024/02/16 05:41:48;;;;;;;;;;;;;;;0.82;100.00;95371.72;10465723;28;19916;-83
2024/02/16 05:46:48;;;;;;;;;;;;;;;0.94;100.00;95381.75;10459059;28;20007;-76
2024/02/16 05:57:18;;;;;;;;;;;;;;;1.29;100.00;95379.00;10456510;28;20434;-79
2024/02/16 06:02:18;;;;;;;;;;;;;;;1.69;100.00;95387.06;10457953;28;19913;-79
2024/02/16 06:07:18;;;;;;;;;;;;;;;2.22;100.00;95387.09;10453644;28;19963;-81
2024/02/16 06:12:19;;;;;;;;;;;;;;;3.15;100.00;95385.25;10456072;28;19923;-78
2024/02/16 06:17:19;;;;;;;;;;;;;;;3.67;100.00;95387.06;10470353;28;19925;-82
2024/02/16 06:22:20;;;;;;;;;;;;;;;3.00;100.00;95390.03;10450776;28;19973;-78
2024/02/16 06:27:20;;;;;;;;;;;;;;;2.58;100.00;95397.47;10471056;28;20398;-78
2024/02/16 06:32:23;;;;;;;;;;;;;;;2.50;100.00;95399.31;10448982;28;19919;-79
2024/02/16 06:37:24;;;;;;;;;;;;;;;2.47;100.00;95391.78;10453960;28;19925;-78
2024/02/16 06:42:25;;;;;;;;;;;;;;;2.56;100.00;95395.84;10474322;28;19939;-79
2024/02/16 06:47:25;;;;;;;;;;;;;;;2.83;100.00;95389.66;10473072;28;20458;-77
2024/02/16 06:52:26;;;;;;;;;;;;;;;4.23;100.00;95386.28;10454594;28;19917;-81
2024/02/16 06:57:26;;;;;;;;;;;;;;;4.20;100.00;95386.72;10450509;28;20582;-82
2024/02/16 07:02:26;;;;;;;;;;;;;;;5.27;100.00;95380.34;10454084;28;20024;-82
2024/02/16 07:07:26;;;;;;;;;;;;;;;7.62;100.00;95374.66;10454324;28;20405;-77
2024/02/16 07:12:27;;;;;;;;;;;;;;;9.44;79.32;95369.16;10453277;28;19920;-80
2024/02/16 07:17:27;;;;;;;;;;;;;;;11.08;62.24;95366.34;10451091;28;19920;-79
2024/02/16 07:22:30;;;;;;;;;;;;;;;10.48;58.62;95365.66;10452313;28;20089;-77
2024/02/16 07:27:31;;;;;;;;;;;;;;;10.19;62.64;95358.69;10451703;28;20444;-79
2024/02/16 07:32:31;;;;;;;;;;;;;;;9.14;67.39;95369.59;10452156;28;19912;-78
2024/02/16 07:37:31;;;;;;;;;;;;;;;10.59;64.18;95367.34;10453525;28;19920;-78
2024/02/16 07:42:31;;;;;;;;;;;;;;;10.55;64.43;95371.66;10469116;28;20491;-80
2024/02/16 07:47:33;;;;;;;;;;;;;;;9.94;64.90;95372.69;10450411;28;19924;-84
2024/02/16 07:52:33;;;;;;;;;;;;;;;9.96;69.82;95367.06;10471335;28;19959;-77
2024/02/16 07:57:34;;;;;;;;;;;;;;;10.55;66.70;95368.97;10469798;28;19920;-84
2024/02/16 08:02:35;;;;;;;;;;;;;;;11.84;59.82;95365.03;10469075;28;19916;-78
2024/02/16 08:07:35;;;;;;;;;;;;;;;13.31;51.48;95352.88;10469714;28;19958;-77
2024/02/16 08:12:35;;;;;;;;;;;;;;;12.60;50.46;95354.63;10444976;28;19932;-79
2024/02/16 08:17:39;;;;;;;;;;;;;;;11.99;53.19;95369.69;10449802;28;20321;-79
2024/02/16 08:22:39;;;;;;;;;;;;;;;11.56;55.71;95364.41;10468215;28;19912;-78
2024/02/16 08:27:39;;;;;;;;;;;;;;;11.66;55.87;95360.94;10451397;28;20317;-78
2024/02/16 08:32:40;;;;;;;;;;;;;;;11.44;56.08;95371.91;10459469;28;19916;-79
2024/02/16 08:37:41;;;;;;;;;;;;;;;10.78;57.87;95379.31;10479328;28;20337;-79
2024/02/16 08:42:44;;;;;;;;;;;;;;;10.84;59.09;95376.69;10439579;28;19916;-82
2024/02/16 08:47:44;;;;;;;;;;;;;;;10.31;67.21;95371.97;10459653;28;19931;-81
2024/02/16 08:52:44;;;;;;;;;;;;;;;10.37;64.62;95370.97;10459659;28;19920;-80
2024/02/16 08:57:45;;;;;;;;;;;;;;;10.84;63.85;95374.00;10459200;28;19917;-79
2024/02/16 09:02:46;;;;;;;;;;;;;;;10.72;64.19;95372.31;10461940;28;20096;-80
2024/02/16 09:07:47;;;;;;;;;;;;;;;10.70;64.03;95374.44;10460917;28;19969;-79
2024/02/16 09:12:47;;;;;;;;;;;;;;;10.91;60.96;95377.25;10458820;28;19920;-84
2024/02/16 09:17:47;;;;;;;;;;;;;;;11.43;59.01;95381.84;10461549;28;20153;-78
2024/02/16 09:22:48;;;;;;;;;;;;;;;11.73;59.68;95380.34;10458617;28;20535;-76
2024/02/16 09:27:48;;;;;;;;;;;;;;;11.65;59.87;95383.56;10463023;28;19920;-78
2024/02/16 09:32:49;;;;;;;;;;;;;;;11.63;57.19;95374.94;10477948;28;20360;-77
2024/02/16 09:37:49;;;;;;;;;;;;;;;12.16;55.90;95374.84;10443014;28;19935;-81
2024/02/16 09:42:50;;;;;;;;;;;;;;;12.45;52.82;95369.75;10459240;28;19955;-79
2024/02/16 09:47:51;;;;;;;;;;;;;;;13.11;50.21;95370.75;10481235;28;19924;-78
2024/02/16 09:52:53;;;;;;;;;;;;;;;13.55;48.12;95360.41;10478278;28;19917;-78
2024/02/16 09:58:04;;;;;;;;;;;;;;;14.57;45.46;95355.47;10460046;28;20322;-78
2024/02/16 10:03:05;;;;;;;;;;;;;;;15.49;42.07;95351.88;10456674;28;19963;-77
2024/02/16 10:08:12;;;;;;;;;;;;;;;17.31;38.71;95332.59;10451688;28;19912;-78
2024/02/16 10:13:12;;;;;;;;;;;;;;;20.35;34.53;95322.34;10466914;28;20411;-83
2024/02/16 10:18:15;;;;;;;;;;;;;;;20.79;31.73;95309.50;10466029;28;19920;-78
2024/02/16 10:23:15;;;;;;;;;;;;;;;22.95;29.94;95308.88;10452131;28;20322;-82
2024/02/16 10:28:17;;;;;;;;;;;;;;;24.46;27.54;95296.44;10458318;28;19955;-77
2024/02/16 10:33:17;;;;;;;;;;;;;;;25.61;26.69;95282.19;10457900;28;19916;-79
2024/02/16 10:38:19;;;;;;;;;;;;;;;25.64;25.70;95275.97;10457669;28;20301;-78
2024/02/16 10:43:20;;;;;;;;;;;;;;;25.87;25.65;95272.53;10441258;28;19912;-79
2024/02/16 10:48:20;;;;;;;;;;;;;;;26.06;24.44;95263.56;10456906;28;20482;-78
2024/02/16 10:53:28;;;;;;;;;;;;;;;25.58;25.31;95260.88;10458048;28;19950;-78
2024/02/16 10:58:30;;;;;;;;;;;;;;;26.09;24.82;95260.09;10455542;28;19995;-78
2024/02/16 11:03:31;;;;;;;;;;;;;;;25.34;24.71;95257.19;10473238;28;19986;-80
2024/02/16 11:08:37;;;;;;;;;;;;;;;25.58;25.14;95252.63;10456400;28;19912;-78
2024/02/16 11:13:39;;;;;;;;;;;;;;;26.10;24.07;95242.41;10454067;28;19913;-79
2024/02/16 11:18:43;;;;;;;;;;;;;;;25.86;25.22;95235.97;10474350;28;19920;-78
2024/02/16 11:23:44;;;;;;;;;;;;;;;26.65;23.94;95234.03;10458198;28;19916;-78
2024/02/16 11:28:45;;;;;;;;;;;;;;;26.10;24.47;95234.94;10456350;28;20345;-78
2024/02/16 11:33:45;;;;;;;;;;;;;;;25.89;24.58;95226.19;10474250;28;20409;-83
2024/02/16 11:38:45;;;;;;;;;;;;;;;26.50;23.47;95216.44;10456109;28;19919;-83
2024/02/16 11:43:45;;;;;;;;;;;;;;;26.33;24.14;95217.69;10457095;28;19967;-81
2024/02/16 11:48:47;;;;;;;;;;;;;;;26.58;23.84;95215.44;10471773;28;20430;-76
2024/02/16 11:53:55;;;;;;;;;;;;;;;24.64;24.91;95214.50;10458005;28;19917;-79
2024/02/16 11:58:55;;;;;;;;;;;;;;;22.38;27.22;95233.69;10456002;28;19912;-82
2024/02/16 12:03:56;;;;;;;;;;;;;;;19.76;30.47;95224.56;10459046;28;19916;-78
2024/02/16 12:08:56;;;;;;;;;;;;;;;16.77;35.36;95228.25;10465314;28;20026;-78
2024/02/16 12:13:57;;;;;;;;;;;;;;;15.16;38.08;95226.34;10463727;28;19928;-78
2024/02/16 12:19:07;;;;;;;;;;;;;;;14.65;39.24;95217.75;10462715;28;19912;-78
2024/02/16 12:24:08;;;;;;;;;;;;;;;13.40;42.41;95232.50;10459511;28;20389;-77
2024/02/16 12:29:13;;;;;;;;;;;;;;;12.78;44.17;95227.34;10475492;28;19921;-79
2024/02/16 12:34:14;;;;;;;;;;;;;;;12.79;44.32;95218.13;10463503;28;19924;-79
2024/02/16 12:39:15;;;;;;;;;;;;;;;12.58;45.63;95219.28;10461107;28;19923;-80
2024/02/16 12:44:23;;;;;;;;;;;;;;;12.46;46.77;95225.78;10481020;28;19943;-76
2024/02/16 12:49:24;;;;;;;;;;;;;;;12.62;46.70;95212.28;10464685;28;19930;-80
2024/02/16 12:54:24;;;;;;;;;;;;;;;12.61;46.35;95210.66;10492549;28;20410;-83
2024/02/16 12:59:25;;;;;;;;;;;;;;;12.47;47.58;95213.94;10478919;28;20314;-78
2024/02/16 13:04:31;;;;;;;;;;;;;;;12.55;47.63;95211.75;10480264;28;19925;-80
2024/02/16 13:09:31;;;;;;;;;;;;;;;12.49;48.30;95213.66;10482210;28;19969;-80
2024/02/16 13:14:31;;;;;;;;;;;;;;;12.57;47.48;95204.19;10496032;28;20303;-79
2024/02/16 13:19:31;;;;;;;;;;;;;;;12.39;47.80;95208.28;10460609;28;20340;-79
2024/02/16 13:24:33;;;;;;;;;;;;;;;12.42;49.16;95205.03;10499971;28;19912;-81
2024/02/16 13:29:34;;;;;;;;;;;;;;;12.39;49.84;95209.09;10488175;28;19921;-84
2024/02/16 13:34:35;;;;;;;;;;;;;;;12.46;49.24;95209.63;10470706;28;19916;-83
2024/02/16 13:39:35;;;;;;;;;;;;;;;12.48;49.38;95203.94;10474195;28;20378;-78
2024/02/16 13:44:36;;;;;;;;;;;;;;;12.13;51.53;95201.03;10503752;28;19979;-82
2024/02/16 13:49:36;;;;;;;;;;;;;;;12.29;50.63;95209.09;10474729;28;20015;-79
2024/02/16 13:54:37;;;;;;;;;;;;;;;12.25;50.14;95208.03;10491005;28;19934;-83
2024/02/16 13:59:37;;;;;;;;;;;;;;;12.00;53.25;95207.00;10470752;28;20402;-81
2024/02/16 14:04:37;;;;;;;;;;;;;;;12.13;53.17;95198.34;10477155;28;19993;-79
2024/02/16 14:09:38;;;;;;;;;;;;;;;12.11;54.85;95205.91;10469951;28;20230;-79
2024/02/16 14:14:38;;;;;;;;;;;;;;;12.04;55.29;95208.06;10494328;28;20023;-82
2024/02/16 14:19:39;;;;;;;;;;;;;;;11.91;55.70;95208.56;10474115;28;19923;-77
2024/02/16 14:24:39;;;;;;;;;;;;;;;11.88;58.70;95207.22;10473391;28;19920;-79
2024/02/16 14:29:41;;;;;;;;;;;;;;;11.89;61.45;95203.47;10497470;28;20322;-78
2024/02/16 14:34:43;;;;;;;;;;;;;;;11.75;59.23;95203.19;10494309;28;19972;-78
2024/02/16 14:39:43;;;;;;;;;;;;;;;11.85;58.28;95202.38;10482174;28;19977;-78
2024/02/16 14:44:44;;;;;;;;;;;;;;;11.86;56.95;95206.69;10477586;28;19920;-78
2024/02/16 14:49:44;;;;;;;;;;;;;;;11.88;56.84;95209.13;10458803;28;20314;-78
2024/02/16 14:54:44;;;;;;;;;;;;;;;11.75;58.08;95213.97;10464672;28;19936;-75
2024/02/16 14:59:44;;;;;;;;;;;;;;;11.70;58.33;95211.25;10458807;28;19918;-75
2024/02/16 15:04:44;;;;;;;;;;;;;;;11.62;58.53;95220.69;10470073;28;19926;-80
2024/02/16 15:09:45;;;;;;;;;;;;;;;11.62;59.19;95225.25;10453078;28;20318;-84
2024/02/16 15:14:46;;;;;;;;;;;;;;;11.53;59.75;95241.13;10455288;28;20334;-81
2024/02/16 15:19:48;;;;;;;;;;;;;;;11.28;60.45;95239.97;10460360;28;19970;-84
2024/02/16 15:24:48;;;;;;;;;;;;;;;11.26;62.17;95246.69;10450787;28;19912;-81
2024/02/16 15:29:49;;;;;;;;;;;;;;;11.16;63.48;95244.78;10470163;28;19912;-86
2024/02/16 15:34:53;;;;;;;;;;;;;;;11.10;67.86;95254.72;10474920;28;19920;-84
2024/02/16 15:39:56;;;;;;;;;;;;;;;11.00;71.08;95257.38;10455493;28;19924;-81
2024/02/16 15:44:57;;;;;;;;;;;;;;;10.89;76.23;95261.88;10468634;28;20061;-80
2024/02/16 15:49:58;;;;;;;;;;;;;;;10.74;79.25;95267.19;10453715;28;20005;-81
2024/02/16 15:54:59;;;;;;;;;;;;;;;10.53;80.42;95277.81;10453693;28;19924;-80
2024/02/16 16:00:02;;;;;;;;;;;;;;;10.44;83.46;95276.69;10460171;28;19919;-81
2024/02/16 16:05:07;;;;;;;;;;;;;;;10.36;84.01;95285.25;10453925;28;20387;-81
2024/02/16 16:10:14;;;;;;;;;;;;;;;10.21;85.52;95286.72;10440275;28;19942;-82
2024/02/16 16:15:15;;;;;;;;;;;;;;;10.14;86.66;95290.69;10472249;28;19959;-82
2024/02/16 16:20:16;;;;;;;;;;;;;;;9.96;86.65;95294.56;10455538;28;19919;-82
2024/02/16 16:25:19;;;;;;;;;;;;;;;9.75;89.12;95295.19;10457631;28;20003;-82
2024/02/16 16:30:19;;;;;;;;;;;;;;;9.74;89.28;95298.13;10456124;28;19916;-85
2024/02/16 16:35:19;;;;;;;;;;;;;;;9.61;91.40;95311.94;10459767;28;19920;-78
2024/02/16 16:40:20;;;;;;;;;;;;;;;9.49;92.36;95322.81;10459488;28;20007;-78
2024/02/16 16:45:21;;;;;;;;;;;;;;;9.27;94.47;95317.47;10465338;28;20303;-82
2024/02/16 16:50:24;;;;;;;;;;;;;;;8.91;93.30;95325.88;10459975;28;19932;-80
2024/02/16 16:55:24;;;;;;;;;;;;;;;8.45;97.61;95328.69;10469326;28;19921;-80
2024/02/16 17:00:25;;;;;;;;;;;;;;;8.51;99.57;95338.44;10458701;28;19920;-81
2024/02/16 17:05:27;;;;;;;;;;;;;;;8.55;100.00;95326.19;10458406;28;19920;-81
2024/02/16 17:10:29;;;;;;;;;;;;;;;8.42;100.00;95339.88;10463851;28;19927;-84
2024/02/16 17:15:35;;;;;;;;;;;;;;;8.32;100.00;95342.41;10460869;28;19920;-79
2024/02/16 17:20:39;;;;;;;;;;;;;;;8.23;100.00;95351.88;10462828;28;19912;-78
2024/02/16 17:25:40;;;;;;;;;;;;;;;8.08;100.00;95347.09;10466310;28;19919;-79
2024/02/16 17:30:42;;;;;;;;;;;;;;;7.89;100.00;95358.00;10474560;28;19912;-83
2024/02/16 17:35:42;;;;;;;;;;;;;;;7.55;100.00;95355.25;10458134;28;20025;-81
2024/02/16 17:40:43;;;;;;;;;;;;;;;7.45;100.00;95360.41;10464463;28;19916;-78
2024/02/16 17:45:43;;;;;;;;;;;;;;;7.23;100.00;95366.41;10456650;28;19921;-81
2024/02/16 17:50:43;;;;;;;;;;;;;;;7.11;100.00;95376.31;10455400;28;20284;-81
2024/02/16 17:55:44;;;;;;;;;;;;;;;7.01;100.00;95372.34;10471834;28;20346;-77
2024/02/16 18:00:44;;;;;;;;;;;;;;;6.80;100.00;95373.78;10471720;28;19970;-82
2024/02/16 18:05:45;;;;;;;;;;;;;;;6.80;100.00;95381.00;10458606;28;19923;-77
2024/02/16 18:10:45;;;;;;;;;;;;;;;6.75;100.00;95381.66;10462724;28;20006;-77
2024/02/16 18:15:46;;;;;;;;;;;;;;;6.67;100.00;95382.03;10462831;28;20104;-79
2024/02/16 18:20:48;;;;;;;;;;;;;;;6.70;100.00;95383.41;10464399;28;20371;-78
2024/02/16 18:25:49;;;;;;;;;;;;;;;6.50;100.00;95395.25;10445146;28;19931;-78
2024/02/16 18:30:50;;;;;;;;;;;;;;;6.71;100.00;95391.19;10461338;28;20503;-79
2024/02/16 18:35:50;;;;;;;;;;;;;;;6.76;100.00;95393.97;10460494;28;19932;-79
2024/02/16 18:40:50;;;;;;;;;;;;;;;6.74;100.00;95397.94;10462557;28;20426;-79
2024/02/16 18:45:54;;;;;;;;;;;;;;;6.67;100.00;95398.88;10461424;28;20120;-77
2024/02/16 18:50:55;;;;;;;;;;;;;;;6.53;100.00;95405.50;10473891;22;19943;-74
2024/02/16 18:55:56;;;;;;;;;;;;;;;6.59;100.00;95403.75;10493011;28;19923;-77
2024/02/16 19:00:56;;;;;;;;;;;;;;;6.61;100.00;95399.78;10494585;28;20419;-76
2024/02/16 19:05:57;;;;;;;;;;;;;;;6.61;100.00;95402.44;10473478;28;19942;-76
2024/02/16 19:10:58;;;;;;;;;;;;;;;6.40;100.00;95411.03;10494659;28;20405;-76
2024/02/16 19:16:00;;;;;;;;;;;;;;;6.37;100.00;95411.50;10491773;28;19969;-75
2024/02/16 19:21:00;;;;;;;;;;;;;;;6.02;100.00;95417.56;10494578;28;19940;-72
2024/02/16 19:26:00;;;;;;;;;;;;;;;5.96;100.00;95419.25;10495219;28;19919;-76
2024/02/16 19:31:01;;;;;;;;;;;;;;;5.91;100.00;95422.59;10473815;28;20383;-75
2024/02/16 19:36:03;;;;;;;;;;;;;;;5.78;100.00;95428.13;10491751;28;19937;-75
2024/02/16 19:41:03;;;;;;;;;;;;;;;5.68;100.00;95426.00;10504182;28;20693;-77
2024/02/16 19:46:04;;;;;;;;;;;;;;;5.45;100.00;95430.13;10474731;28;19991;-75
2024/02/16 19:51:04;;;;;;;;;;;;;;;5.46;100.00;95433.63;10489989;28;20019;-75
2024/02/16 19:56:04;;;;;;;;;;;;;;;5.42;100.00;95430.59;10490816;28;19916;-74
2024/02/16 20:01:05;;;;;;;;;;;;;;;5.36;100.00;95426.16;10479431;28;19926;-76
2024/02/16 20:06:05;;;;;;;;;;;;;;;5.27;100.00;95430.16;10478972;28;19939;-75
2024/02/16 20:11:05;;;;;;;;;;;;;;;5.18;100.00;95437.63;10500151;28;20282;-77
2024/02/16 20:16:07;;;;;;;;;;;;;;;5.13;100.00;95432.97;10491290;28;19927;-75
2024/02/16 20:21:07;;;;;;;;;;;;;;;5.19;100.00;95433.13;10490461;28;20015;-75
2024/02/16 20:26:07;;;;;;;;;;;;;;;5.06;100.00;95442.06;10493869;28;20328;-75
2024/02/16 20:31:09;;;;;;;;;;;;;;;4.98;100.00;95437.81;10499495;28;19920;-76
2024/02/16 20:36:09;;;;;;;;;;;;;;;4.92;100.00;95442.19;10489767;28;20076;-76
2024/02/16 20:41:09;;;;;;;;;;;;;;;4.89;100.00;95444.50;10500716;28;20538;-74
2024/02/16 20:46:10;;;;;;;;;;;;;;;4.93;100.00;95441.16;10498696;28;19928;-76
2024/02/16 20:51:10;;;;;;;;;;;;;;;4.86;100.00;95435.09;10485492;28;19993;-76
2024/02/16 20:56:11;;;;;;;;;;;;;;;5.03;100.00;95445.19;10500185;28;19924;-75
2024/02/16 21:01:11;;;;;;;;;;;;;;;4.95;100.00;95444.44;10498326;28;20352;-77
2024/02/16 21:06:11;;;;;;;;;;;;;;;4.97;100.00;95449.53;10504289;28;19920;-77
2024/02/16 21:11:11;;;;;;;;;;;;;;;4.87;100.00;95450.03;10502970;28;19912;-76
2024/02/16 21:16:13;;;;;;;;;;;;;;;4.79;100.00;95452.97;10499192;28;19924;-81
2024/02/16 21:21:13;;;;;;;;;;;;;;;4.71;100.00;95453.25;10491969;28;19912;-79
2024/02/16 21:26:13;;;;;;;;;;;;;;;4.50;100.00;95460.59;10504727;28;20451;-80
2024/02/16 21:31:13;;;;;;;;;;;;;;;4.43;100.00;95457.16;10505323;28;19981;-79
2024/02/16 21:36:14;;;;;;;;;;;;;;;4.40;100.00;95458.41;10503078;28;19947;-80
2024/02/16 21:41:16;;;;;;;;;;;;;;;4.49;100.00;95460.81;10509498;28;20328;-76
2024/02/16 21:46:26;;;;;;;;;;;;;;;4.54;100.00;95466.31;10501310;28;19916;-78
2024/02/16 21:51:27;;;;;;;;;;;;;;;4.49;100.00;95476.78;10497344;28;20306;-77
2024/02/16 21:56:27;;;;;;;;;;;;;;;4.23;100.00;95476.75;10499577;28;19935;-78
2024/02/16 22:01:28;;;;;;;;;;;;;;;4.28;100.00;95474.28;10498796;28;19927;-82
2024/02/16 22:06:29;;;;;;;;;;;;;;;4.24;100.00;95482.88;10510658;28;19916;-78
2024/02/16 22:11:31;;;;;;;;;;;;;;;4.28;100.00;95484.91;10512439;28;20344;-75
2024/02/16 22:16:31;;;;;;;;;;;;;;;4.15;100.00;95479.66;10496719;28;19924;-73
2024/02/16 22:21:31;;;;;;;;;;;;;;;4.06;100.00;95480.94;10498531;28;19962;-82
2024/02/16 22:26:34;;;;;;;;;;;;;;;3.90;100.00;95480.41;10500273;28;19927;-79
2024/02/16 22:31:34;;;;;;;;;;;;;;;4.04;100.00;95480.34;10509473;28;19916;-78
2024/02/16 22:36:35;;;;;;;;;;;;;;;4.05;100.00;95485.44;10482610;28;19917;-79
2024/02/16 22:41:36;;;;;;;;;;;;;;;4.04;100.00;95485.66;10486935;28;19918;-78
2024/02/16 22:46:36;;;;;;;;;;;;;;;4.05;100.00;95482.00;10510636;28;19923;-78
2024/02/16 22:51:37;;;;;;;;;;;;;;;4.00;100.00;95484.47;10510163;28;19924;-78
2024/02/16 22:56:37;;;;;;;;;;;;;;;3.85;100.00;95485.56;10510598;28;19936;-78
2024/02/16 23:01:38;;;;;;;;;;;;;;;3.67;100.00;95478.28;10491366;28;19931;-78
2024/02/16 23:06:39;;;;;;;;;;;;;;;3.81;100.00;95481.69;10512828;28;19958;-78
2024/02/16 23:11:41;;;;;;;;;;;;;;;3.87;100.00;95485.34;10510007;28;20390;-77
2024/02/16 23:16:41;;;;;;;;;;;;;;;3.88;100.00;95476.31;10510404;28;19969;-80
2024/02/16 23:21:42;;;;;;;;;;;;;;;3.93;100.00;95477.34;10512685;28;20311;-80
2024/02/16 23:26:42;;;;;;;;;;;;;;;3.94;100.00;95486.13;10512675;28;19912;-80
2024/02/16 23:31:42;;;;;;;;;;;;;;;3.87;100.00;95486.16;10510336;28;19989;-80
2024/02/16 23:36:42;;;;;;;;;;;;;;;3.88;100.00;95487.78;10510036;28;19927;-78
2024/02/16 23:41:43;;;;;;;;;;;;;;;3.79;100.00;95490.91;10510446;28;19923;-76
2024/02/16 23:46:43;;;;;;;;;;;;;;;3.89;100.00;95491.25;10507606;28;20277;-77
2024/02/16 23:51:44;;;;;;;;;;;;;;;3.90;100.00;95498.22;10507603;28;20022;-76
2024/02/16 23:56:45;;;;;;;;;;;;;;;4.01;100.00;95494.88;10508326;28;20360;-78
